sensor_id;sensor_type;location;lat;lon;timestamp;temperature;humidity
75489;HTU21D;64069;46.396;48.102;2023-07-13T00:00:35;21.14;61.22
75489;HTU21D;64069;46.396;48.102;2023-07-13T00:03:02;21.11;61.35
75489;HTU21D;64069;46.396;48.102;2023-07-13T00:05:29;21.10;61.50
75489;HTU21D;64069;46.396;48.102;2023-07-13T00:07:54;21.08;61.56
75489;HTU21D;64069;46.396;48.102;2023-07-13T00:10:21;21.10;61.50
75489;HTU21D;64069;46.396;48.102;2023-07-13T00:12:47;21.11;61.45
75489;HTU21D;64069;46.396;48.102;2023-07-13T00:15:19;21.10;61.57
75489;HTU21D;64069;46.396;48.102;2023-07-13T00:17:57;21.09;61.63
75489;HTU21D;64069;46.396;48.102;2023-07-13T00:20:24;21.10;61.55
75489;HTU21D;64069;46.396;48.102;2023-07-13T00:22:51;21.10;61.56
75489;HTU21D;64069;46.396;48.102;2023-07-13T00:25:21;21.14;61.49
75489;HTU21D;64069;46.396;48.102;2023-07-13T00:27:50;21.15;61.45
75489;HTU21D;64069;46.396;48.102;2023-07-13T00:30:17;21.17;61.51
75489;HTU21D;64069;46.396;48.102;2023-07-13T00:32:47;21.16;61.52
75489;HTU21D;64069;46.396;48.102;2023-07-13T00:35:14;21.16;61.52
75489;HTU21D;64069;46.396;48.102;2023-07-13T00:37:40;21.15;61.70
75489;HTU21D;64069;46.396;48.102;2023-07-13T00:40:07;21.11;61.92
75489;HTU21D;64069;46.396;48.102;2023-07-13T00:42:33;21.08;61.99
75489;HTU21D;64069;46.396;48.102;2023-07-13T00:46:02;21.07;62.04
75489;HTU21D;64069;46.396;48.102;2023-07-13T00:47:53;21.09;62.01
75489;HTU21D;64069;46.396;48.102;2023-07-13T00:50:20;21.06;62.31
75489;HTU21D;64069;46.396;48.102;2023-07-13T00:52:50;21.04;62.52
75489;HTU21D;64069;46.396;48.102;2023-07-13T00:55:20;21.03;62.59
75489;HTU21D;64069;46.396;48.102;2023-07-13T00:57:48;21.03;62.86
75489;HTU21D;64069;46.396;48.102;2023-07-13T01:00:14;20.99;63.20
75489;HTU21D;64069;46.396;48.102;2023-07-13T01:02:45;20.95;63.53
75489;HTU21D;64069;46.396;48.102;2023-07-13T01:05:20;20.92;63.79
75489;HTU21D;64069;46.396;48.102;2023-07-13T01:07:48;20.91;64.21
75489;HTU21D;64069;46.396;48.102;2023-07-13T01:10:55;20.88;64.63
75489;HTU21D;64069;46.396;48.102;2023-07-13T01:13:21;20.85;64.98
75489;HTU21D;64069;46.396;48.102;2023-07-13T01:15:48;20.79;65.34
75489;HTU21D;64069;46.396;48.102;2023-07-13T01:18:29;20.76;65.74
75489;HTU21D;64069;46.396;48.102;2023-07-13T01:21:00;20.76;65.90
75489;HTU21D;64069;46.396;48.102;2023-07-13T01:23:27;20.74;66.34
75489;HTU21D;64069;46.396;48.102;2023-07-13T01:25:55;20.73;66.72
75489;HTU21D;64069;46.396;48.102;2023-07-13T01:28:23;20.69;66.96
75489;HTU21D;64069;46.396;48.102;2023-07-13T01:30:54;20.68;67.04
75489;HTU21D;64069;46.396;48.102;2023-07-13T01:33:22;20.70;67.04
75489;HTU21D;64069;46.396;48.102;2023-07-13T01:35:49;20.71;67.09
75489;HTU21D;64069;46.396;48.102;2023-07-13T01:38:20;20.74;67.22
75489;HTU21D;64069;46.396;48.102;2023-07-13T01:40:46;20.76;67.22
75489;HTU21D;64069;46.396;48.102;2023-07-13T01:43:13;20.76;67.36
75489;HTU21D;64069;46.396;48.102;2023-07-13T01:45:39;20.78;67.65
75489;HTU21D;64069;46.396;48.102;2023-07-13T01:48:05;20.78;67.81
75489;HTU21D;64069;46.396;48.102;2023-07-13T01:50:33;20.78;67.94
75489;HTU21D;64069;46.396;48.102;2023-07-13T01:52:59;20.84;67.91
75489;HTU21D;64069;46.396;48.102;2023-07-13T01:55:25;20.87;67.91
75489;HTU21D;64069;46.396;48.102;2023-07-13T01:57:51;20.93;67.97
75489;HTU21D;64069;46.396;48.102;2023-07-13T02:00:18;21.02;67.97
75489;HTU21D;64069;46.396;48.102;2023-07-13T02:02:46;21.05;67.83
75489;HTU21D;64069;46.396;48.102;2023-07-13T02:05:13;21.10;67.95
75489;HTU21D;64069;46.396;48.102;2023-07-13T02:07:40;21.42;67.39
75489;HTU21D;64069;46.396;48.102;2023-07-13T02:10:09;21.94;66.09
75489;HTU21D;64069;46.396;48.102;2023-07-13T02:12:36;22.47;64.68
75489;HTU21D;64069;46.396;48.102;2023-07-13T02:15:02;22.81;63.68
75489;HTU21D;64069;46.396;48.102;2023-07-13T02:17:29;23.16;62.90
75489;HTU21D;64069;46.396;48.102;2023-07-13T02:19:55;23.54;61.92
75489;HTU21D;64069;46.396;48.102;2023-07-13T02:22:21;23.86;61.16
75489;HTU21D;64069;46.396;48.102;2023-07-13T02:24:48;24.10;60.47
75489;HTU21D;64069;46.396;48.102;2023-07-13T02:27:17;24.18;60.12
75489;HTU21D;64069;46.396;48.102;2023-07-13T02:29:43;24.34;59.67
75489;HTU21D;64069;46.396;48.102;2023-07-13T02:32:10;24.46;59.12
75489;HTU21D;64069;46.396;48.102;2023-07-13T02:34:36;24.61;58.61
75489;HTU21D;64069;46.396;48.102;2023-07-13T02:37:04;24.82;58.05
75489;HTU21D;64069;46.396;48.102;2023-07-13T02:39:30;25.09;57.22
75489;HTU21D;64069;46.396;48.102;2023-07-13T02:41:59;25.36;56.54
75489;HTU21D;64069;46.396;48.102;2023-07-13T02:44:26;25.32;56.23
75489;HTU21D;64069;46.396;48.102;2023-07-13T02:46:52;24.90;57.11
75489;HTU21D;64069;46.396;48.102;2023-07-13T02:49:18;24.68;57.78
75489;HTU21D;64069;46.396;48.102;2023-07-13T02:51:44;24.80;57.42
75489;HTU21D;64069;46.396;48.102;2023-07-13T02:54:10;25.13;56.60
75489;HTU21D;64069;46.396;48.102;2023-07-13T02:56:37;25.21;56.34
75489;HTU21D;64069;46.396;48.102;2023-07-13T02:59:05;25.14;56.47
75489;HTU21D;64069;46.396;48.102;2023-07-13T03:01:31;24.92;56.87
75489;HTU21D;64069;46.396;48.102;2023-07-13T03:04:01;25.00;57.08
75489;HTU21D;64069;46.396;48.102;2023-07-13T03:06:31;25.54;55.82
75489;HTU21D;64069;46.396;48.102;2023-07-13T03:08:58;25.78;55.08
75489;HTU21D;64069;46.396;48.102;2023-07-13T03:11:26;25.38;55.74
75489;HTU21D;64069;46.396;48.102;2023-07-13T03:14:00;24.69;57.44
75489;HTU21D;64069;46.396;48.102;2023-07-13T03:16:29;24.15;58.71
75489;HTU21D;64069;46.396;48.102;2023-07-13T03:18:55;23.83;59.61
75489;HTU21D;64069;46.396;48.102;2023-07-13T03:21:22;23.73;59.81
75489;HTU21D;64069;46.396;48.102;2023-07-13T03:23:47;23.85;59.60
75489;HTU21D;64069;46.396;48.102;2023-07-13T03:26:16;24.40;58.22
75489;HTU21D;64069;46.396;48.102;2023-07-13T03:28:43;24.92;56.74
75489;HTU21D;64069;46.396;48.102;2023-07-13T03:31:22;25.38;55.70
75489;HTU21D;64069;46.396;48.102;2023-07-13T03:33:50;25.79;54.68
75489;HTU21D;64069;46.396;48.102;2023-07-13T03:36:21;26.12;53.94
75489;HTU21D;64069;46.396;48.102;2023-07-13T03:38:51;26.33;53.62
75489;HTU21D;64069;46.396;48.102;2023-07-13T03:41:22;26.53;53.04
75489;HTU21D;64069;46.396;48.102;2023-07-13T03:43:50;26.68;52.68
75489;HTU21D;64069;46.396;48.102;2023-07-13T03:46:19;26.78;52.16
75489;HTU21D;64069;46.396;48.102;2023-07-13T03:48:46;26.96;51.89
75489;HTU21D;64069;46.396;48.102;2023-07-13T03:51:15;27.19;51.17
75489;HTU21D;64069;46.396;48.102;2023-07-13T03:53:42;27.36;50.82
75489;HTU21D;64069;46.396;48.102;2023-07-13T03:56:10;27.45;50.48
75489;HTU21D;64069;46.396;48.102;2023-07-13T03:58:38;27.54;50.12
75489;HTU21D;64069;46.396;48.102;2023-07-13T04:01:15;27.71;49.69
75489;HTU21D;64069;46.396;48.102;2023-07-13T04:03:51;27.86;49.27
75489;HTU21D;64069;46.396;48.102;2023-07-13T04:06:27;27.94;49.12
75489;HTU21D;64069;46.396;48.102;2023-07-13T04:08:59;28.08;48.85
75489;HTU21D;64069;46.396;48.102;2023-07-13T04:11:28;28.10;48.68
75489;HTU21D;64069;46.396;48.102;2023-07-13T04:13:55;28.03;48.63
75489;HTU21D;64069;46.396;48.102;2023-07-13T04:16:21;28.14;48.27
75489;HTU21D;64069;46.396;48.102;2023-07-13T04:18:48;28.18;48.12
75489;HTU21D;64069;46.396;48.102;2023-07-13T04:21:14;28.34;47.86
75489;HTU21D;64069;46.396;48.102;2023-07-13T04:23:41;28.53;47.34
75489;HTU21D;64069;46.396;48.102;2023-07-13T04:26:07;28.59;47.28
75489;HTU21D;64069;46.396;48.102;2023-07-13T04:28:33;28.84;46.83
75489;HTU21D;64069;46.396;48.102;2023-07-13T04:31:00;28.98;46.47
75489;HTU21D;64069;46.396;48.102;2023-07-13T04:33:27;29.14;46.09
75489;HTU21D;64069;46.396;48.102;2023-07-13T04:35:54;29.26;45.75
75489;HTU21D;64069;46.396;48.102;2023-07-13T04:38:23;29.21;45.67
75489;HTU21D;64069;46.396;48.102;2023-07-13T04:40:50;29.22;45.57
75489;HTU21D;64069;46.396;48.102;2023-07-13T04:43:17;29.16;45.54
75489;HTU21D;64069;46.396;48.102;2023-07-13T04:45:43;29.29;45.27
75489;HTU21D;64069;46.396;48.102;2023-07-13T04:48:09;29.33;45.05
75489;HTU21D;64069;46.396;48.102;2023-07-13T04:50:38;29.46;44.75
75489;HTU21D;64069;46.396;48.102;2023-07-13T04:53:04;29.51;44.55
75489;HTU21D;64069;46.396;48.102;2023-07-13T04:55:30;29.43;44.46
75489;HTU21D;64069;46.396;48.102;2023-07-13T04:57:57;29.33;44.70
75489;HTU21D;64069;46.396;48.102;2023-07-13T05:00:25;29.35;44.35
75489;HTU21D;64069;46.396;48.102;2023-07-13T05:02:55;29.39;44.10
75489;HTU21D;64069;46.396;48.102;2023-07-13T05:05:21;29.43;44.03
75489;HTU21D;64069;46.396;48.102;2023-07-13T05:07:47;29.42;43.77
75489;HTU21D;64069;46.396;48.102;2023-07-13T05:10:13;29.36;43.75
75489;HTU21D;64069;46.396;48.102;2023-07-13T05:12:38;29.27;43.65
75489;HTU21D;64069;46.396;48.102;2023-07-13T05:15:05;29.33;43.39
75489;HTU21D;64069;46.396;48.102;2023-07-13T05:17:31;29.41;43.16
75489;HTU21D;64069;46.396;48.102;2023-07-13T05:19:57;29.49;43.06
75489;HTU21D;64069;46.396;48.102;2023-07-13T05:22:23;29.56;42.66
75489;HTU21D;64069;46.396;48.102;2023-07-13T05:24:49;29.48;42.68
75489;HTU21D;64069;46.396;48.102;2023-07-13T05:27:15;29.56;42.36
75489;HTU21D;64069;46.396;48.102;2023-07-13T05:29:41;29.60;42.10
75489;HTU21D;64069;46.396;48.102;2023-07-13T05:32:07;29.60;41.99
75489;HTU21D;64069;46.396;48.102;2023-07-13T05:34:33;29.70;41.81
75489;HTU21D;64069;46.396;48.102;2023-07-13T05:36:59;29.68;41.69
75489;HTU21D;64069;46.396;48.102;2023-07-13T05:39:25;29.67;41.90
75489;HTU21D;64069;46.396;48.102;2023-07-13T05:41:51;29.87;41.57
75489;HTU21D;64069;46.396;48.102;2023-07-13T05:44:17;29.88;41.39
75489;HTU21D;64069;46.396;48.102;2023-07-13T05:46:44;29.60;41.95
75489;HTU21D;64069;46.396;48.102;2023-07-13T05:49:10;29.61;42.11
75489;HTU21D;64069;46.396;48.102;2023-07-13T05:51:37;29.57;42.11
75489;HTU21D;64069;46.396;48.102;2023-07-13T05:54:03;29.81;41.85
75489;HTU21D;64069;46.396;48.102;2023-07-13T05:56:29;29.89;41.83
75489;HTU21D;64069;46.396;48.102;2023-07-13T05:58:56;29.95;41.75
75489;HTU21D;64069;46.396;48.102;2023-07-13T06:01:22;30.16;41.26
75489;HTU21D;64069;46.396;48.102;2023-07-13T06:03:53;30.17;41.00
75489;HTU21D;64069;46.396;48.102;2023-07-13T06:06:19;30.03;40.65
75489;HTU21D;64069;46.396;48.102;2023-07-13T06:08:45;30.12;40.54
75489;HTU21D;64069;46.396;48.102;2023-07-13T06:11:16;30.38;39.83
75489;HTU21D;64069;46.396;48.102;2023-07-13T06:13:43;30.36;39.42
75489;HTU21D;64069;46.396;48.102;2023-07-13T06:16:09;30.37;39.07
75489;HTU21D;64069;46.396;48.102;2023-07-13T06:18:37;30.28;38.76
75489;HTU21D;64069;46.396;48.102;2023-07-13T06:21:11;30.15;39.07
75489;HTU21D;64069;46.396;48.102;2023-07-13T06:23:38;30.11;38.44
75489;HTU21D;64069;46.396;48.102;2023-07-13T06:26:07;30.12;38.36
75489;HTU21D;64069;46.396;48.102;2023-07-13T06:28:35;30.28;38.07
75489;HTU21D;64069;46.396;48.102;2023-07-13T06:31:01;30.52;37.50
75489;HTU21D;64069;46.396;48.102;2023-07-13T06:33:29;30.66;36.93
75489;HTU21D;64069;46.396;48.102;2023-07-13T06:36:01;30.82;36.60
75489;HTU21D;64069;46.396;48.102;2023-07-13T06:38:28;30.71;36.46
75489;HTU21D;64069;46.396;48.102;2023-07-13T06:40:54;30.70;36.55
75489;HTU21D;64069;46.396;48.102;2023-07-13T06:43:19;30.86;36.11
75489;HTU21D;64069;46.396;48.102;2023-07-13T06:45:48;30.78;35.87
75489;HTU21D;64069;46.396;48.102;2023-07-13T06:48:19;30.87;35.68
75489;HTU21D;64069;46.396;48.102;2023-07-13T06:50:46;30.98;35.57
75489;HTU21D;64069;46.396;48.102;2023-07-13T06:53:12;31.26;35.49
75489;HTU21D;64069;46.396;48.102;2023-07-13T06:55:38;31.49;34.87
75489;HTU21D;64069;46.396;48.102;2023-07-13T06:58:05;31.35;35.00
75489;HTU21D;64069;46.396;48.102;2023-07-13T07:00:31;31.35;35.11
75489;HTU21D;64069;46.396;48.102;2023-07-13T07:02:57;31.43;34.85
75489;HTU21D;64069;46.396;48.102;2023-07-13T07:05:23;31.43;34.58
75489;HTU21D;64069;46.396;48.102;2023-07-13T07:07:50;31.33;34.49
75489;HTU21D;64069;46.396;48.102;2023-07-13T07:10:17;31.09;34.86
75489;HTU21D;64069;46.396;48.102;2023-07-13T07:12:47;30.97;35.02
75489;HTU21D;64069;46.396;48.102;2023-07-13T07:15:14;30.97;34.84
75489;HTU21D;64069;46.396;48.102;2023-07-13T07:17:42;31.12;34.34
75489;HTU21D;64069;46.396;48.102;2023-07-13T07:20:09;31.18;34.47
75489;HTU21D;64069;46.396;48.102;2023-07-13T07:22:35;31.14;34.79
75489;HTU21D;64069;46.396;48.102;2023-07-13T07:25:01;31.46;34.30
75489;HTU21D;64069;46.396;48.102;2023-07-13T07:27:27;31.87;33.76
75489;HTU21D;64069;46.396;48.102;2023-07-13T07:29:53;31.96;33.51
75489;HTU21D;64069;46.396;48.102;2023-07-13T07:32:20;32.26;33.34
75489;HTU21D;64069;46.396;48.102;2023-07-13T07:34:46;32.03;33.54
75489;HTU21D;64069;46.396;48.102;2023-07-13T07:37:13;31.99;33.46
75489;HTU21D;64069;46.396;48.102;2023-07-13T07:39:39;31.87;33.61
75489;HTU21D;64069;46.396;48.102;2023-07-13T07:42:05;31.58;33.80
75489;HTU21D;64069;46.396;48.102;2023-07-13T07:44:32;31.46;34.12
75489;HTU21D;64069;46.396;48.102;2023-07-13T07:47:03;31.24;34.44
75489;HTU21D;64069;46.396;48.102;2023-07-13T07:49:29;30.97;34.88
75489;HTU21D;64069;46.396;48.102;2023-07-13T07:51:55;31.02;34.71
75489;HTU21D;64069;46.396;48.102;2023-07-13T07:54:25;30.98;34.89
75489;HTU21D;64069;46.396;48.102;2023-07-13T07:56:51;31.01;34.61
75489;HTU21D;64069;46.396;48.102;2023-07-13T07:59:20;30.92;34.73
75489;HTU21D;64069;46.396;48.102;2023-07-13T08:01:46;30.63;35.04
75489;HTU21D;64069;46.396;48.102;2023-07-13T08:04:22;30.30;35.67
75489;HTU21D;64069;46.396;48.102;2023-07-13T08:06:48;30.22;35.97
75489;HTU21D;64069;46.396;48.102;2023-07-13T08:09:14;30.42;35.73
75489;HTU21D;64069;46.396;48.102;2023-07-13T08:11:40;30.27;36.05
75489;HTU21D;64069;46.396;48.102;2023-07-13T08:14:06;29.93;36.63
75489;HTU21D;64069;46.396;48.102;2023-07-13T08:16:36;29.93;36.76
75489;HTU21D;64069;46.396;48.102;2023-07-13T08:19:02;30.53;35.93
75489;HTU21D;64069;46.396;48.102;2023-07-13T08:21:27;30.93;35.05
75489;HTU21D;64069;46.396;48.102;2023-07-13T08:23:54;30.77;35.01
75489;HTU21D;64069;46.396;48.102;2023-07-13T08:26:21;30.25;35.36
75489;HTU21D;64069;46.396;48.102;2023-07-13T08:28:47;30.05;35.74
75489;HTU21D;64069;46.396;48.102;2023-07-13T08:31:13;29.94;35.97
75489;HTU21D;64069;46.396;48.102;2023-07-13T08:33:40;30.17;35.67
75489;HTU21D;64069;46.396;48.102;2023-07-13T08:36:09;30.25;35.06
75489;HTU21D;64069;46.396;48.102;2023-07-13T08:38:35;30.23;34.82
75489;HTU21D;64069;46.396;48.102;2023-07-13T08:41:10;30.23;34.92
75489;HTU21D;64069;46.396;48.102;2023-07-13T08:43:41;30.57;34.05
75489;HTU21D;64069;46.396;48.102;2023-07-13T08:46:32;31.06;33.25
75489;HTU21D;64069;46.396;48.102;2023-07-13T08:49:06;31.55;32.42
75489;HTU21D;64069;46.396;48.102;2023-07-13T08:51:52;31.86;31.64
75489;HTU21D;64069;46.396;48.102;2023-07-13T08:54:35;31.80;30.76
75489;HTU21D;64069;46.396;48.102;2023-07-13T08:57:12;31.40;31.35
75489;HTU21D;64069;46.396;48.102;2023-07-13T08:59:45;31.42;31.52
75489;HTU21D;64069;46.396;48.102;2023-07-13T09:05:14;31.69;30.63
75489;HTU21D;64069;46.396;48.102;2023-07-13T09:10:43;31.68;29.60
75489;HTU21D;64069;46.396;48.102;2023-07-13T09:16:01;32.00;29.11
75489;HTU21D;64069;46.396;48.102;2023-07-13T09:18:35;31.98;28.82
75489;HTU21D;64069;46.396;48.102;2023-07-13T09:23:36;31.73;28.58
75489;HTU21D;64069;46.396;48.102;2023-07-13T09:26:13;31.58;28.23
75489;HTU21D;64069;46.396;48.102;2023-07-13T09:28:45;31.44;28.35
75489;HTU21D;64069;46.396;48.102;2023-07-13T09:31:42;31.59;28.10
75489;HTU21D;64069;46.396;48.102;2023-07-13T09:34:11;31.39;27.91
75489;HTU21D;64069;46.396;48.102;2023-07-13T09:36:38;31.28;28.38
75489;HTU21D;64069;46.396;48.102;2023-07-13T09:39:28;31.22;28.50
75489;HTU21D;64069;46.396;48.102;2023-07-13T09:42:07;30.99;28.57
75489;HTU21D;64069;46.396;48.102;2023-07-13T09:44:38;30.85;28.78
75489;HTU21D;64069;46.396;48.102;2023-07-13T09:47:19;30.87;28.58
75489;HTU21D;64069;46.396;48.102;2023-07-13T09:49:55;30.84;28.45
75489;HTU21D;64069;46.396;48.102;2023-07-13T09:52:24;30.78;28.31
75489;HTU21D;64069;46.396;48.102;2023-07-13T09:54:55;30.60;28.42
75489;HTU21D;64069;46.396;48.102;2023-07-13T09:57:27;30.57;28.16
75489;HTU21D;64069;46.396;48.102;2023-07-13T09:59:54;30.37;28.57
75489;HTU21D;64069;46.396;48.102;2023-07-13T10:02:35;30.63;28.40
75489;HTU21D;64069;46.396;48.102;2023-07-13T10:05:04;31.09;28.07
75489;HTU21D;64069;46.396;48.102;2023-07-13T10:07:32;31.37;27.58
75489;HTU21D;64069;46.396;48.102;2023-07-13T10:09:59;31.26;27.45
75489;HTU21D;64069;46.396;48.102;2023-07-13T10:12:30;31.16;27.52
75489;HTU21D;64069;46.396;48.102;2023-07-13T10:15:07;31.22;27.59
75489;HTU21D;64069;46.396;48.102;2023-07-13T10:17:39;31.30;27.25
75489;HTU21D;64069;46.396;48.102;2023-07-13T10:20:06;31.35;27.21
75489;HTU21D;64069;46.396;48.102;2023-07-13T10:22:53;31.57;26.68
75489;HTU21D;64069;46.396;48.102;2023-07-13T10:25:26;31.66;26.84
75489;HTU21D;64069;46.396;48.102;2023-07-13T10:27:58;31.60;26.63
75489;HTU21D;64069;46.396;48.102;2023-07-13T10:30:32;31.35;26.85
75489;HTU21D;64069;46.396;48.102;2023-07-13T10:33:10;31.23;26.97
75489;HTU21D;64069;46.396;48.102;2023-07-13T10:35:39;31.10;27.17
75489;HTU21D;64069;46.396;48.102;2023-07-13T10:38:15;30.83;27.22
75489;HTU21D;64069;46.396;48.102;2023-07-13T10:41:02;30.61;27.38
75489;HTU21D;64069;46.396;48.102;2023-07-13T10:43:39;30.83;27.25
75489;HTU21D;64069;46.396;48.102;2023-07-13T10:46:13;31.07;27.33
75489;HTU21D;64069;46.396;48.102;2023-07-13T10:48:40;30.93;27.19
75489;HTU21D;64069;46.396;48.102;2023-07-13T10:51:09;30.74;27.28
75489;HTU21D;64069;46.396;48.102;2023-07-13T10:53:38;30.61;27.74
75489;HTU21D;64069;46.396;48.102;2023-07-13T10:58:42;30.52;27.41
75489;HTU21D;64069;46.396;48.102;2023-07-13T11:01:11;30.46;27.60
75489;HTU21D;64069;46.396;48.102;2023-07-13T11:03:50;30.51;27.68
75489;HTU21D;64069;46.396;48.102;2023-07-13T11:21:31;31.11;26.80
75489;HTU21D;64069;46.396;48.102;2023-07-13T11:24:28;31.27;26.49
75489;HTU21D;64069;46.396;48.102;2023-07-13T11:26:51;31.48;26.30
75489;HTU21D;64069;46.396;48.102;2023-07-13T11:31:53;31.71;25.23
75489;HTU21D;64069;46.396;48.102;2023-07-13T11:34:38;31.70;25.50
75489;HTU21D;64069;46.396;48.102;2023-07-13T11:37:12;31.85;25.29
75489;HTU21D;64069;46.396;48.102;2023-07-13T11:39:42;31.79;25.28
75489;HTU21D;64069;46.396;48.102;2023-07-13T11:42:12;31.61;25.87
75489;HTU21D;64069;46.396;48.102;2023-07-13T11:44:47;31.60;25.97
75489;HTU21D;64069;46.396;48.102;2023-07-13T11:47:23;31.76;25.91
75489;HTU21D;64069;46.396;48.102;2023-07-13T11:49:54;31.49;25.85
75489;HTU21D;64069;46.396;48.102;2023-07-13T11:52:36;31.21;26.07
75489;HTU21D;64069;46.396;48.102;2023-07-13T11:55:14;31.13;26.03
75489;HTU21D;64069;46.396;48.102;2023-07-13T11:58:00;30.96;26.23
75489;HTU21D;64069;46.396;48.102;2023-07-13T12:00:31;30.84;26.03
75489;HTU21D;64069;46.396;48.102;2023-07-13T12:03:02;30.93;25.38
75489;HTU21D;64069;46.396;48.102;2023-07-13T12:05:30;30.92;25.14
75489;HTU21D;64069;46.396;48.102;2023-07-13T12:07:58;30.72;25.15
75489;HTU21D;64069;46.396;48.102;2023-07-13T12:10:25;30.49;25.35
75489;HTU21D;64069;46.396;48.102;2023-07-13T12:12:54;30.31;25.42
75489;HTU21D;64069;46.396;48.102;2023-07-13T12:15:22;30.48;25.20
75489;HTU21D;64069;46.396;48.102;2023-07-13T12:17:49;30.71;24.82
75489;HTU21D;64069;46.396;48.102;2023-07-13T12:20:21;30.78;24.74
75489;HTU21D;64069;46.396;48.102;2023-07-13T12:22:50;30.66;24.56
75489;HTU21D;64069;46.396;48.102;2023-07-13T12:25:18;30.41;24.91
75489;HTU21D;64069;46.396;48.102;2023-07-13T12:27:50;30.30;25.07
75489;HTU21D;64069;46.396;48.102;2023-07-13T12:30:32;30.38;25.15
75489;HTU21D;64069;46.396;48.102;2023-07-13T12:33:11;30.61;25.04
75489;HTU21D;64069;46.396;48.102;2023-07-13T12:35:50;30.76;24.99
75489;HTU21D;64069;46.396;48.102;2023-07-13T12:38:18;30.65;25.15
75489;HTU21D;64069;46.396;48.102;2023-07-13T12:40:49;30.39;25.63
75489;HTU21D;64069;46.396;48.102;2023-07-13T12:43:17;30.22;25.88
75489;HTU21D;64069;46.396;48.102;2023-07-13T12:48:42;30.56;25.81
75489;HTU21D;64069;46.396;48.102;2023-07-13T12:51:13;30.76;25.82
75489;HTU21D;64069;46.396;48.102;2023-07-13T12:53:42;30.91;25.47
75489;HTU21D;64069;46.396;48.102;2023-07-13T12:56:21;30.99;25.42
75489;HTU21D;64069;46.396;48.102;2023-07-13T12:58:49;31.10;25.44
75489;HTU21D;64069;46.396;48.102;2023-07-13T13:01:22;31.01;25.57
75489;HTU21D;64069;46.396;48.102;2023-07-13T13:03:52;30.99;25.75
75489;HTU21D;64069;46.396;48.102;2023-07-13T13:08:50;30.97;25.94
75489;HTU21D;64069;46.396;48.102;2023-07-13T13:11:17;30.65;26.16
75489;HTU21D;64069;46.396;48.102;2023-07-13T13:13:44;30.26;26.64
75489;HTU21D;64069;46.396;48.102;2023-07-13T13:18:50;29.75;27.25
75489;HTU21D;64069;46.396;48.102;2023-07-13T13:21:17;29.65;27.38
75489;HTU21D;64069;46.396;48.102;2023-07-13T13:23:43;29.54;27.41
75489;HTU21D;64069;46.396;48.102;2023-07-13T13:26:13;29.49;27.30
75489;HTU21D;64069;46.396;48.102;2023-07-13T13:28:42;29.56;27.27
75489;HTU21D;64069;46.396;48.102;2023-07-13T13:31:08;29.64;27.04
75489;HTU21D;64069;46.396;48.102;2023-07-13T13:33:42;29.60;26.99
75489;HTU21D;64069;46.396;48.102;2023-07-13T13:36:19;29.36;26.91
75489;HTU21D;64069;46.396;48.102;2023-07-13T13:38:45;29.12;27.13
75489;HTU21D;64069;46.396;48.102;2023-07-13T13:41:13;29.04;27.12
75489;HTU21D;64069;46.396;48.102;2023-07-13T13:43:41;29.20;26.82
75489;HTU21D;64069;46.396;48.102;2023-07-13T13:46:19;29.21;26.46
75489;HTU21D;64069;46.396;48.102;2023-07-13T13:48:46;29.17;26.58
75489;HTU21D;64069;46.396;48.102;2023-07-13T13:51:16;29.11;26.81
75489;HTU21D;64069;46.396;48.102;2023-07-13T13:53:42;29.04;26.49
75489;HTU21D;64069;46.396;48.102;2023-07-13T13:56:08;28.88;26.54
75489;HTU21D;64069;46.396;48.102;2023-07-13T13:58:35;28.77;26.28
75489;HTU21D;64069;46.396;48.102;2023-07-13T14:01:00;28.79;26.02
75489;HTU21D;64069;46.396;48.102;2023-07-13T14:03:26;28.88;26.13
75489;HTU21D;64069;46.396;48.102;2023-07-13T14:05:54;28.94;26.21
75489;HTU21D;64069;46.396;48.102;2023-07-13T14:08:21;29.00;26.04
75489;HTU21D;64069;46.396;48.102;2023-07-13T14:10:49;29.07;25.94
75489;HTU21D;64069;46.396;48.102;2023-07-13T14:13:27;29.09;25.97
75489;HTU21D;64069;46.396;48.102;2023-07-13T14:15:58;29.08;25.65
75489;HTU21D;64069;46.396;48.102;2023-07-13T14:18:25;29.01;25.62
75489;HTU21D;64069;46.396;48.102;2023-07-13T14:20:50;28.98;25.45
75489;HTU21D;64069;46.396;48.102;2023-07-13T14:23:22;28.87;25.15
75489;HTU21D;64069;46.396;48.102;2023-07-13T14:25:48;28.83;25.13
75489;HTU21D;64069;46.396;48.102;2023-07-13T14:28:25;28.77;24.97
75489;HTU21D;64069;46.396;48.102;2023-07-13T14:30:57;28.69;24.56
75489;HTU21D;64069;46.396;48.102;2023-07-13T14:33:23;28.64;24.29
75489;HTU21D;64069;46.396;48.102;2023-07-13T14:35:55;28.57;24.02
75489;HTU21D;64069;46.396;48.102;2023-07-13T14:38:20;28.52;23.81
75489;HTU21D;64069;46.396;48.102;2023-07-13T14:40:50;28.48;23.88
75489;HTU21D;64069;46.396;48.102;2023-07-13T14:43:17;28.45;23.94
75489;HTU21D;64069;46.396;48.102;2023-07-13T14:45:46;28.40;23.57
75489;HTU21D;64069;46.396;48.102;2023-07-13T14:50:42;28.29;23.39
75489;HTU21D;64069;46.396;48.102;2023-07-13T14:53:10;28.21;23.56
75489;HTU21D;64069;46.396;48.102;2023-07-13T14:55:37;28.15;23.89
75489;HTU21D;64069;46.396;48.102;2023-07-13T14:58:03;28.10;24.15
75489;HTU21D;64069;46.396;48.102;2023-07-13T15:00:29;28.09;24.27
75489;HTU21D;64069;46.396;48.102;2023-07-13T15:02:58;28.05;24.43
75489;HTU21D;64069;46.396;48.102;2023-07-13T15:05:31;27.99;24.63
75489;HTU21D;64069;46.396;48.102;2023-07-13T15:07:59;27.91;24.53
75489;HTU21D;64069;46.396;48.102;2023-07-13T15:10:28;27.86;24.51
75489;HTU21D;64069;46.396;48.102;2023-07-13T15:13:20;27.80;24.67
75489;HTU21D;64069;46.396;48.102;2023-07-13T15:15:47;27.71;24.39
75489;HTU21D;64069;46.396;48.102;2023-07-13T15:18:15;27.65;24.38
75489;HTU21D;64069;46.396;48.102;2023-07-13T15:20:44;27.60;24.41
75489;HTU21D;64069;46.396;48.102;2023-07-13T15:23:14;27.54;24.65
75489;HTU21D;64069;46.396;48.102;2023-07-13T15:25:41;27.47;24.65
75489;HTU21D;64069;46.396;48.102;2023-07-13T15:28:10;27.41;24.67
75489;HTU21D;64069;46.396;48.102;2023-07-13T15:30:45;27.32;24.84
75489;HTU21D;64069;46.396;48.102;2023-07-13T15:35:40;27.20;24.91
75489;HTU21D;64069;46.396;48.102;2023-07-13T15:38:19;27.12;24.98
75489;HTU21D;64069;46.396;48.102;2023-07-13T15:40:50;27.05;25.25
75489;HTU21D;64069;46.396;48.102;2023-07-13T15:43:18;26.94;25.46
75489;HTU21D;64069;46.396;48.102;2023-07-13T15:45:45;26.86;25.53
75489;HTU21D;64069;46.396;48.102;2023-07-13T15:48:20;26.81;25.61
75489;HTU21D;64069;46.396;48.102;2023-07-13T15:50:54;26.75;25.82
75489;HTU21D;64069;46.396;48.102;2023-07-13T15:53:24;26.69;26.02
75489;HTU21D;64069;46.396;48.102;2023-07-13T15:55:51;26.58;26.19
75489;HTU21D;64069;46.396;48.102;2023-07-13T15:58:18;26.49;26.21
75489;HTU21D;64069;46.396;48.102;2023-07-13T16:00:48;26.40;26.33